sensor_id;sensor_type;location;lat;lon;timestamp;P1;durP1;ratioP1;P2;durP2;ratioP2
68176;SDS011;56478;50.982;7.032;2024-01-30T00:00:32;8.38;;;6.78;;
68176;SDS011;56478;50.982;7.032;2024-01-30T00:06:22;11.73;;;7.88;;
68176;SDS011;56478;50.982;7.032;2024-01-30T00:08:50;12.13;;;7.90;;
68176;SDS011;56478;50.982;7.032;2024-01-30T00:11:28;10.73;;;7.53;;
68176;SDS011;56478;50.982;7.032;2024-01-30T00:13:56;10.13;;;7.30;;
68176;SDS011;56478;50.982;7.032;2024-01-30T00:16:27;11.70;;;7.55;;
68176;SDS011;56478;50.982;7.032;2024-01-30T00:18:55;9.98;;;7.50;;
68176;SDS011;56478;50.982;7.032;2024-01-30T00:21:25;14.27;;;7.65;;
68176;SDS011;56478;50.982;7.032;2024-01-30T00:23:59;10.60;;;7.50;;
68176;SDS011;56478;50.982;7.032;2024-01-30T00:26:30;8.95;;;7.25;;
68176;SDS011;56478;50.982;7.032;2024-01-30T00:28:58;16.23;;;7.78;;
68176;SDS011;56478;50.982;7.032;2024-01-30T00:31:34;12.60;;;7.72;;
68176;SDS011;56478;50.982;7.032;2024-01-30T00:34:03;10.55;;;7.68;;
68176;SDS011;56478;50.982;7.032;2024-01-30T00:36:31;10.73;;;7.27;;
68176;SDS011;56478;50.982;7.032;2024-01-30T00:38:59;13.52;;;7.32;;
68176;SDS011;56478;50.982;7.032;2024-01-30T00:41:34;9.73;;;7.15;;
68176;SDS011;56478;50.982;7.032;2024-01-30T00:44:00;11.85;;;7.53;;
68176;SDS011;56478;50.982;7.032;2024-01-30T00:46:25;10.38;;;7.10;;
68176;SDS011;56478;50.982;7.032;2024-01-30T00:48:59;10.52;;;7.18;;
68176;SDS011;56478;50.982;7.032;2024-01-30T00:51:27;11.30;;;7.45;;
68176;SDS011;56478;50.982;7.032;2024-01-30T00:53:55;12.65;;;7.88;;
68176;SDS011;56478;50.982;7.032;2024-01-30T00:56:23;10.80;;;7.22;;
68176;SDS011;56478;50.982;7.032;2024-01-30T00:58:52;11.55;;;7.10;;
68176;SDS011;56478;50.982;7.032;2024-01-30T01:01:33;10.63;;;7.25;;
68176;SDS011;56478;50.982;7.032;2024-01-30T01:04:09;11.30;;;6.78;;
68176;SDS011;56478;50.982;7.032;2024-01-30T01:06:37;8.60;;;6.97;;
68176;SDS011;56478;50.982;7.032;2024-01-30T01:09:11;9.50;;;7.38;;
68176;SDS011;56478;50.982;7.032;2024-01-30T01:11:47;9.73;;;7.32;;
68176;SDS011;56478;50.982;7.032;2024-01-30T01:14:34;11.32;;;7.88;;
68176;SDS011;56478;50.982;7.032;2024-01-30T01:17:10;12.23;;;7.32;;
68176;SDS011;56478;50.982;7.032;2024-01-30T01:19:38;9.63;;;6.65;;
68176;SDS011;56478;50.982;7.032;2024-01-30T01:22:13;11.63;;;7.35;;
68176;SDS011;56478;50.982;7.032;2024-01-30T01:24:45;11.45;;;7.55;;
68176;SDS011;56478;50.982;7.032;2024-01-30T01:27:14;11.32;;;6.93;;
68176;SDS011;56478;50.982;7.032;2024-01-30T01:29:44;8.93;;;7.05;;
68176;SDS011;56478;50.982;7.032;2024-01-30T01:32:13;8.93;;;6.87;;
68176;SDS011;56478;50.982;7.032;2024-01-30T01:34:43;10.52;;;6.60;;
68176;SDS011;56478;50.982;7.032;2024-01-30T01:37:12;8.68;;;6.95;;
68176;SDS011;56478;50.982;7.032;2024-01-30T01:39:40;11.45;;;7.10;;
68176;SDS011;56478;50.982;7.032;2024-01-30T01:42:13;9.82;;;7.20;;
68176;SDS011;56478;50.982;7.032;2024-01-30T01:44:41;10.57;;;7.13;;
68176;SDS011;56478;50.982;7.032;2024-01-30T01:47:10;9.38;;;6.65;;
68176;SDS011;56478;50.982;7.032;2024-01-30T01:49:44;8.02;;;6.50;;
68176;SDS011;56478;50.982;7.032;2024-01-30T01:52:15;10.55;;;6.55;;
68176;SDS011;56478;50.982;7.032;2024-01-30T01:54:52;11.30;;;6.70;;
68176;SDS011;56478;50.982;7.032;2024-01-30T01:57:23;9.20;;;6.85;;
68176;SDS011;56478;50.982;7.032;2024-01-30T01:59:53;8.80;;;7.00;;
68176;SDS011;56478;50.982;7.032;2024-01-30T02:02:30;9.32;;;6.55;;
68176;SDS011;56478;50.982;7.032;2024-01-30T02:05:01;7.70;;;5.45;;
68176;SDS011;56478;50.982;7.032;2024-01-30T02:07:27;7.43;;;6.43;;
68176;SDS011;56478;50.982;7.032;2024-01-30T02:09:58;7.65;;;6.57;;
68176;SDS011;56478;50.982;7.032;2024-01-30T02:12:26;9.10;;;6.40;;
68176;SDS011;56478;50.982;7.032;2024-01-30T02:14:55;8.57;;;6.55;;
68176;SDS011;56478;50.982;7.032;2024-01-30T02:17:48;12.85;;;6.38;;
68176;SDS011;56478;50.982;7.032;2024-01-30T02:20:16;10.43;;;6.47;;
68176;SDS011;56478;50.982;7.032;2024-01-30T02:22:48;7.68;;;6.18;;
68176;SDS011;56478;50.982;7.032;2024-01-30T02:25:17;11.05;;;6.70;;
68176;SDS011;56478;50.982;7.032;2024-01-30T02:27:48;8.63;;;6.45;;
68176;SDS011;56478;50.982;7.032;2024-01-30T02:30:17;7.45;;;6.60;;
68176;SDS011;56478;50.982;7.032;2024-01-30T02:32:53;7.50;;;6.10;;
68176;SDS011;56478;50.982;7.032;2024-01-30T02:35:21;7.95;;;5.97;;
68176;SDS011;56478;50.982;7.032;2024-01-30T02:37:47;9.93;;;6.65;;
68176;SDS011;56478;50.982;7.032;2024-01-30T02:40:25;8.85;;;6.70;;
68176;SDS011;56478;50.982;7.032;2024-01-30T02:42:54;9.90;;;6.65;;
68176;SDS011;56478;50.982;7.032;2024-01-30T02:45:23;9.10;;;6.50;;
68176;SDS011;56478;50.982;7.032;2024-01-30T02:48:16;10.32;;;5.80;;
68176;SDS011;56478;50.982;7.032;2024-01-30T02:50:45;7.93;;;6.28;;
68176;SDS011;56478;50.982;7.032;2024-01-30T02:53:13;8.67;;;6.10;;
68176;SDS011;56478;50.982;7.032;2024-01-30T02:56:02;10.30;;;5.90;;
68176;SDS011;56478;50.982;7.032;2024-01-30T02:58:31;9.43;;;6.20;;
68176;SDS011;56478;50.982;7.032;2024-01-30T03:01:21;8.65;;;5.90;;
68176;SDS011;56478;50.982;7.032;2024-01-30T03:03:50;9.13;;;5.95;;
68176;SDS011;56478;50.982;7.032;2024-01-30T03:06:16;8.68;;;6.20;;
68176;SDS011;56478;50.982;7.032;2024-01-30T03:11:11;7.00;;;5.60;;
68176;SDS011;56478;50.982;7.032;2024-01-30T03:13:40;9.68;;;5.90;;
68176;SDS011;56478;50.982;7.032;2024-01-30T03:16:10;6.85;;;5.57;;
68176;SDS011;56478;50.982;7.032;2024-01-30T03:18:35;7.60;;;6.15;;
68176;SDS011;56478;50.982;7.032;2024-01-30T03:21:07;8.43;;;6.10;;
68176;SDS011;56478;50.982;7.032;2024-01-30T03:23:33;7.88;;;5.57;;
68176;SDS011;56478;50.982;7.032;2024-01-30T03:25:58;11.68;;;6.00;;
68176;SDS011;56478;50.982;7.032;2024-01-30T03:28:34;8.48;;;5.88;;
68176;SDS011;56478;50.982;7.032;2024-01-30T03:31:02;7.57;;;6.13;;
68176;SDS011;56478;50.982;7.032;2024-01-30T03:33:34;8.77;;;5.43;;
68176;SDS011;56478;50.982;7.032;2024-01-30T03:36:20;8.73;;;5.90;;
68176;SDS011;56478;50.982;7.032;2024-01-30T03:38:48;8.75;;;6.55;;
68176;SDS011;56478;50.982;7.032;2024-01-30T03:41:14;9.73;;;6.35;;
68176;SDS011;56478;50.982;7.032;2024-01-30T03:43:46;8.40;;;5.68;;
68176;SDS011;56478;50.982;7.032;2024-01-30T03:46:12;9.63;;;5.78;;
68176;SDS011;56478;50.982;7.032;2024-01-30T03:48:40;8.73;;;6.07;;
68176;SDS011;56478;50.982;7.032;2024-01-30T03:51:11;8.65;;;6.32;;
68176;SDS011;56478;50.982;7.032;2024-01-30T03:53:47;8.63;;;6.22;;
68176;SDS011;56478;50.982;7.032;2024-01-30T03:56:22;9.70;;;6.22;;
68176;SDS011;56478;50.982;7.032;2024-01-30T03:58:58;6.60;;;5.80;;
68176;SDS011;56478;50.982;7.032;2024-01-30T04:01:25;7.95;;;6.40;;
68176;SDS011;56478;50.982;7.032;2024-01-30T04:04:07;8.88;;;6.18;;
68176;SDS011;56478;50.982;7.032;2024-01-30T04:06:40;7.00;;;5.57;;
68176;SDS011;56478;50.982;7.032;2024-01-30T04:09:11;8.45;;;6.22;;
68176;SDS011;56478;50.982;7.032;2024-01-30T04:11:40;8.85;;;6.18;;
68176;SDS011;56478;50.982;7.032;2024-01-30T04:14:09;9.23;;;6.30;;
68176;SDS011;56478;50.982;7.032;2024-01-30T04:16:34;7.82;;;6.25;;
68176;SDS011;56478;50.982;7.032;2024-01-30T04:19:03;9.02;;;6.38;;
68176;SDS011;56478;50.982;7.032;2024-01-30T04:21:41;8.13;;;6.20;;
68176;SDS011;56478;50.982;7.032;2024-01-30T04:24:07;7.43;;;6.53;;
68176;SDS011;56478;50.982;7.032;2024-01-30T04:26:33;9.75;;;6.28;;
68176;SDS011;56478;50.982;7.032;2024-01-30T04:29:10;7.30;;;6.28;;
68176;SDS011;56478;50.982;7.032;2024-01-30T04:31:48;9.68;;;6.30;;
68176;SDS011;56478;50.982;7.032;2024-01-30T04:34:21;9.80;;;6.65;;
68176;SDS011;56478;50.982;7.032;2024-01-30T04:36:47;7.40;;;6.40;;
68176;SDS011;56478;50.982;7.032;2024-01-30T04:39:22;8.35;;;6.57;;
68176;SDS011;56478;50.982;7.032;2024-01-30T04:41:53;9.38;;;6.78;;
68176;SDS011;56478;50.982;7.032;2024-01-30T04:44:24;11.30;;;6.72;;
68176;SDS011;56478;50.982;7.032;2024-01-30T04:46:50;8.23;;;6.70;;
68176;SDS011;56478;50.982;7.032;2024-01-30T04:49:20;11.50;;;6.83;;
68176;SDS011;56478;50.982;7.032;2024-01-30T04:51:54;11.15;;;7.57;;
68176;SDS011;56478;50.982;7.032;2024-01-30T04:54:32;8.85;;;6.97;;
68176;SDS011;56478;50.982;7.032;2024-01-30T04:57:02;10.48;;;6.60;;
68176;SDS011;56478;50.982;7.032;2024-01-30T04:59:36;8.20;;;6.60;;
68176;SDS011;56478;50.982;7.032;2024-01-30T05:02:01;9.90;;;6.77;;
68176;SDS011;56478;50.982;7.032;2024-01-30T05:04:49;9.48;;;6.75;;
68176;SDS011;56478;50.982;7.032;2024-01-30T05:07:22;8.57;;;6.78;;
68176;SDS011;56478;50.982;7.032;2024-01-30T05:09:49;10.57;;;6.97;;
68176;SDS011;56478;50.982;7.032;2024-01-30T05:12:22;10.40;;;6.93;;
68176;SDS011;56478;50.982;7.032;2024-01-30T05:14:56;10.75;;;6.70;;
68176;SDS011;56478;50.982;7.032;2024-01-30T05:20:10;8.75;;;6.70;;
68176;SDS011;56478;50.982;7.032;2024-01-30T05:22:48;10.35;;;6.75;;
68176;SDS011;56478;50.982;7.032;2024-01-30T05:25:16;8.88;;;6.43;;
68176;SDS011;56478;50.982;7.032;2024-01-30T05:27:49;9.77;;;6.72;;
68176;SDS011;56478;50.982;7.032;2024-01-30T05:30:15;8.45;;;6.35;;
68176;SDS011;56478;50.982;7.032;2024-01-30T05:32:40;10.18;;;6.20;;
68176;SDS011;56478;50.982;7.032;2024-01-30T05:35:24;8.57;;;6.72;;
68176;SDS011;56478;50.982;7.032;2024-01-30T05:38:12;8.80;;;6.35;;
68176;SDS011;56478;50.982;7.032;2024-01-30T05:44:03;11.23;;;6.97;;
68176;SDS011;56478;50.982;7.032;2024-01-30T05:46:52;8.82;;;6.90;;
68176;SDS011;56478;50.982;7.032;2024-01-30T05:49:20;12.20;;;6.93;;
68176;SDS011;56478;50.982;7.032;2024-01-30T05:52:08;8.60;;;6.25;;
68176;SDS011;56478;50.982;7.032;2024-01-30T05:54:45;9.15;;;6.53;;
68176;SDS011;56478;50.982;7.032;2024-01-30T05:57:16;10.23;;;6.80;;
68176;SDS011;56478;50.982;7.032;2024-01-30T06:00:06;9.40;;;6.43;;
68176;SDS011;56478;50.982;7.032;2024-01-30T06:05:36;8.60;;;6.53;;
68176;SDS011;56478;50.982;7.032;2024-01-30T06:10:51;9.68;;;6.20;;
68176;SDS011;56478;50.982;7.032;2024-01-30T06:13:31;9.70;;;6.38;;
68176;SDS011;56478;50.982;7.032;2024-01-30T06:16:04;8.13;;;6.30;;
68176;SDS011;56478;50.982;7.032;2024-01-30T06:18:36;12.00;;;6.63;;
68176;SDS011;56478;50.982;7.032;2024-01-30T06:21:07;9.47;;;6.60;;
68176;SDS011;56478;50.982;7.032;2024-01-30T06:23:42;7.55;;;6.13;;
68176;SDS011;56478;50.982;7.032;2024-01-30T06:26:10;10.98;;;6.68;;
68176;SDS011;56478;50.982;7.032;2024-01-30T06:28:38;11.13;;;6.65;;
68176;SDS011;56478;50.982;7.032;2024-01-30T06:31:10;9.38;;;7.05;;
68176;SDS011;56478;50.982;7.032;2024-01-30T06:33:35;12.00;;;6.82;;
68176;SDS011;56478;50.982;7.032;2024-01-30T06:36:07;13.00;;;6.43;;
68176;SDS011;56478;50.982;7.032;2024-01-30T06:38:33;7.57;;;6.65;;
68176;SDS011;56478;50.982;7.032;2024-01-30T06:40:58;8.63;;;6.60;;
68176;SDS011;56478;50.982;7.032;2024-01-30T06:43:27;9.20;;;6.85;;
68176;SDS011;56478;50.982;7.032;2024-01-30T06:45:52;11.73;;;7.00;;
68176;SDS011;56478;50.982;7.032;2024-01-30T06:48:18;11.30;;;7.10;;
68176;SDS011;56478;50.982;7.032;2024-01-30T06:50:46;10.77;;;7.05;;
68176;SDS011;56478;50.982;7.032;2024-01-30T06:53:15;9.10;;;6.70;;
68176;SDS011;56478;50.982;7.032;2024-01-30T06:58:45;8.07;;;5.60;;
68176;SDS011;56478;50.982;7.032;2024-01-30T07:01:44;11.20;;;6.50;;
68176;SDS011;56478;50.982;7.032;2024-01-30T07:04:10;9.27;;;5.88;;
68176;SDS011;56478;50.982;7.032;2024-01-30T07:06:35;10.00;;;6.03;;
68176;SDS011;56478;50.982;7.032;2024-01-30T07:09:01;8.15;;;5.95;;
68176;SDS011;56478;50.982;7.032;2024-01-30T07:11:26;7.43;;;6.40;;
68176;SDS011;56478;50.982;7.032;2024-01-30T07:13:53;12.57;;;6.30;;
68176;SDS011;56478;50.982;7.032;2024-01-30T07:16:19;8.00;;;6.50;;
68176;SDS011;56478;50.982;7.032;2024-01-30T07:18:45;8.77;;;5.50;;
68176;SDS011;56478;50.982;7.032;2024-01-30T07:21:11;8.90;;;6.10;;
68176;SDS011;56478;50.982;7.032;2024-01-30T07:23:37;9.18;;;6.05;;
68176;SDS011;56478;50.982;7.032;2024-01-30T07:26:07;8.45;;;6.05;;
68176;SDS011;56478;50.982;7.032;2024-01-30T07:28:33;9.00;;;6.10;;
68176;SDS011;56478;50.982;7.032;2024-01-30T07:31:00;7.10;;;6.38;;
68176;SDS011;56478;50.982;7.032;2024-01-30T07:33:26;8.10;;;6.13;;
68176;SDS011;56478;50.982;7.032;2024-01-30T07:35:52;11.07;;;6.47;;
68176;SDS011;56478;50.982;7.032;2024-01-30T07:38:18;8.45;;;6.18;;
68176;SDS011;56478;50.982;7.032;2024-01-30T07:40:44;12.52;;;5.95;;
68176;SDS011;56478;50.982;7.032;2024-01-30T07:43:10;9.05;;;5.80;;
68176;SDS011;56478;50.982;7.032;2024-01-30T07:45:35;6.85;;;5.53;;
68176;SDS011;56478;50.982;7.032;2024-01-30T07:48:02;7.10;;;5.82;;
68176;SDS011;56478;50.982;7.032;2024-01-30T07:50:28;9.27;;;6.20;;
68176;SDS011;56478;50.982;7.032;2024-01-30T07:52:55;9.57;;;6.03;;
68176;SDS011;56478;50.982;7.032;2024-01-30T07:55:22;7.45;;;6.20;;
68176;SDS011;56478;50.982;7.032;2024-01-30T07:57:53;8.32;;;6.13;;
68176;SDS011;56478;50.982;7.032;2024-01-30T08:00:20;10.27;;;6.50;;
68176;SDS011;56478;50.982;7.032;2024-01-30T08:02:46;10.40;;;6.25;;
68176;SDS011;56478;50.982;7.032;2024-01-30T08:05:11;7.50;;;5.68;;
68176;SDS011;56478;50.982;7.032;2024-01-30T08:07:37;9.40;;;6.05;;
68176;SDS011;56478;50.982;7.032;2024-01-30T08:10:02;8.23;;;6.40;;
68176;SDS011;56478;50.982;7.032;2024-01-30T08:12:28;9.48;;;5.93;;
68176;SDS011;56478;50.982;7.032;2024-01-30T08:14:54;8.95;;;6.20;;
68176;SDS011;56478;50.982;7.032;2024-01-30T08:17:19;7.32;;;6.22;;
68176;SDS011;56478;50.982;7.032;2024-01-30T08:19:45;7.97;;;5.43;;
68176;SDS011;56478;50.982;7.032;2024-01-30T08:22:11;11.55;;;5.60;;
68176;SDS011;56478;50.982;7.032;2024-01-30T08:24:37;8.27;;;5.97;;
68176;SDS011;56478;50.982;7.032;2024-01-30T08:27:03;7.75;;;6.10;;
68176;SDS011;56478;50.982;7.032;2024-01-30T08:29:30;8.32;;;6.07;;
68176;SDS011;56478;50.982;7.032;2024-01-30T08:31:55;9.68;;;5.85;;
68176;SDS011;56478;50.982;7.032;2024-01-30T08:34:21;5.05;;;4.47;;
68176;SDS011;56478;50.982;7.032;2024-01-30T08:36:46;9.02;;;6.00;;
68176;SDS011;56478;50.982;7.032;2024-01-30T08:39:13;11.88;;;6.22;;
68176;SDS011;56478;50.982;7.032;2024-01-30T08:41:39;8.20;;;5.70;;
68176;SDS011;56478;50.982;7.032;2024-01-30T08:44:05;9.50;;;6.32;;
68176;SDS011;56478;50.982;7.032;2024-01-30T08:46:30;10.60;;;6.10;;
68176;SDS011;56478;50.982;7.032;2024-01-30T08:48:56;9.07;;;6.07;;
68176;SDS011;56478;50.982;7.032;2024-01-30T08:51:21;9.88;;;6.35;;
68176;SDS011;56478;50.982;7.032;2024-01-30T08:53:47;8.30;;;6.72;;
68176;SDS011;56478;50.982;7.032;2024-01-30T08:56:13;9.82;;;6.55;;
68176;SDS011;56478;50.982;7.032;2024-01-30T08:58:38;9.73;;;6.45;;
68176;SDS011;56478;50.982;7.032;2024-01-30T09:01:04;9.68;;;6.30;;
68176;SDS011;56478;50.982;7.032;2024-01-30T09:03:31;9.00;;;6.53;;
68176;SDS011;56478;50.982;7.032;2024-01-30T09:05:56;10.10;;;6.57;;
68176;SDS011;56478;50.982;7.032;2024-01-30T09:08:22;8.05;;;6.40;;
68176;SDS011;56478;50.982;7.032;2024-01-30T09:10:47;9.98;;;6.43;;
68176;SDS011;56478;50.982;7.032;2024-01-30T09:13:14;12.52;;;6.85;;
68176;SDS011;56478;50.982;7.032;2024-01-30T09:15:40;8.38;;;5.50;;
68176;SDS011;56478;50.982;7.032;2024-01-30T09:18:06;7.03;;;5.88;;
68176;SDS011;56478;50.982;7.032;2024-01-30T09:20:32;8.45;;;6.07;;
68176;SDS011;56478;50.982;7.032;2024-01-30T09:22:57;8.68;;;5.95;;
68176;SDS011;56478;50.982;7.032;2024-01-30T09:25:23;7.53;;;5.72;;
68176;SDS011;56478;50.982;7.032;2024-01-30T09:27:48;10.50;;;6.07;;
68176;SDS011;56478;50.982;7.032;2024-01-30T09:30:14;11.57;;;6.22;;
68176;SDS011;56478;50.982;7.032;2024-01-30T09:32:40;7.85;;;5.57;;
68176;SDS011;56478;50.982;7.032;2024-01-30T09:35:05;8.55;;;6.25;;
68176;SDS011;56478;50.982;7.032;2024-01-30T09:37:31;8.13;;;6.40;;
68176;SDS011;56478;50.982;7.032;2024-01-30T09:39:57;7.55;;;5.72;;
68176;SDS011;56478;50.982;7.032;2024-01-30T09:42:28;11.27;;;6.60;;
68176;SDS011;56478;50.982;7.032;2024-01-30T09:45:00;8.43;;;6.32;;
68176;SDS011;56478;50.982;7.032;2024-01-30T09:47:26;11.38;;;6.47;;
68176;SDS011;56478;50.982;7.032;2024-01-30T09:49:52;8.77;;;6.15;;
68176;SDS011;56478;50.982;7.032;2024-01-30T09:52:18;9.63;;;6.50;;
68176;SDS011;56478;50.982;7.032;2024-01-30T09:54:43;8.30;;;6.00;;
68176;SDS011;56478;50.982;7.032;2024-01-30T09:57:11;9.27;;;6.05;;
68176;SDS011;56478;50.982;7.032;2024-01-30T09:59:36;9.00;;;6.03;;
68176;SDS011;56478;50.982;7.032;2024-01-30T10:02:02;9.80;;;6.03;;
68176;SDS011;56478;50.982;7.032;2024-01-30T10:04:29;9.15;;;5.85;;
68176;SDS011;56478;50.982;7.032;2024-01-30T10:06:55;7.43;;;6.00;;
68176;SDS011;56478;50.982;7.032;2024-01-30T10:09:21;8.00;;;5.88;;
68176;SDS011;56478;50.982;7.032;2024-01-30T10:11:48;7.75;;;5.85;;
68176;SDS011;56478;50.982;7.032;2024-01-30T10:14:14;8.73;;;5.93;;
68176;SDS011;56478;50.982;7.032;2024-01-30T10:16:40;11.38;;;6.00;;
68176;SDS011;56478;50.982;7.032;2024-01-30T10:19:06;7.63;;;5.78;;
68176;SDS011;56478;50.982;7.032;2024-01-30T10:21:31;10.18;;;6.13;;
68176;SDS011;56478;50.982;7.032;2024-01-30T10:23:57;8.98;;;6.30;;
68176;SDS011;56478;50.982;7.032;2024-01-30T10:26:22;12.43;;;6.40;;
68176;SDS011;56478;50.982;7.032;2024-01-30T10:28:48;7.53;;;5.80;;
68176;SDS011;56478;50.982;7.032;2024-01-30T10:31:17;9.40;;;5.90;;
68176;SDS011;56478;50.982;7.032;2024-01-30T10:33:44;9.82;;;6.07;;
68176;SDS011;56478;50.982;7.032;2024-01-30T10:36:10;7.35;;;5.90;;
68176;SDS011;56478;50.982;7.032;2024-01-30T10:38:39;7.18;;;5.80;;
68176;SDS011;56478;50.982;7.032;2024-01-30T10:41:08;7.40;;;5.88;;
68176;SDS011;56478;50.982;7.032;2024-01-30T10:43:40;8.65;;;6.13;;
68176;SDS011;56478;50.982;7.032;2024-01-30T10:46:09;9.52;;;5.35;;
68176;SDS011;56478;50.982;7.032;2024-01-30T10:48:42;8.68;;;6.07;;
68176;SDS011;56478;50.982;7.032;2024-01-30T10:51:09;7.30;;;5.88;;
68176;SDS011;56478;50.982;7.032;2024-01-30T10:53:36;7.47;;;6.05;;
68176;SDS011;56478;50.982;7.032;2024-01-30T10:56:02;9.20;;;5.57;;
68176;SDS011;56478;50.982;7.032;2024-01-30T10:58:29;10.05;;;6.15;;
68176;SDS011;56478;50.982;7.032;2024-01-30T11:00:55;8.13;;;5.90;;
68176;SDS011;56478;50.982;7.032;2024-01-30T11:03:24;6.35;;;4.63;;
68176;SDS011;56478;50.982;7.032;2024-01-30T11:05:50;9.13;;;6.10;;
68176;SDS011;56478;50.982;7.032;2024-01-30T11:08:25;9.82;;;5.88;;
68176;SDS011;56478;50.982;7.032;2024-01-30T11:10:56;7.50;;;5.40;;
68176;SDS011;56478;50.982;7.032;2024-01-30T11:13:26;9.50;;;5.70;;
68176;SDS011;56478;50.982;7.032;2024-01-30T11:15:53;6.72;;;5.00;;
68176;SDS011;56478;50.982;7.032;2024-01-30T11:18:25;9.27;;;6.05;;
68176;SDS011;56478;50.982;7.032;2024-01-30T11:20:51;8.63;;;5.80;;
68176;SDS011;56478;50.982;7.032;2024-01-30T11:23:17;6.93;;;6.03;;
68176;SDS011;56478;50.982;7.032;2024-01-30T11:25:46;6.28;;;5.68;;
68176;SDS011;56478;50.982;7.032;2024-01-30T11:28:15;8.25;;;6.18;;
68176;SDS011;56478;50.982;7.032;2024-01-30T11:30:41;7.85;;;6.00;;
68176;SDS011;56478;50.982;7.032;2024-01-30T11:33:08;10.27;;;6.50;;
68176;SDS011;56478;50.982;7.032;2024-01-30T11:35:41;12.65;;;6.03;;
68176;SDS011;56478;50.982;7.032;2024-01-30T11:38:07;10.77;;;6.07;;
68176;SDS011;56478;50.982;7.032;2024-01-30T11:40:35;9.70;;;5.95;;
68176;SDS011;56478;50.982;7.032;2024-01-30T11:43:03;7.70;;;5.97;;
68176;SDS011;56478;50.982;7.032;2024-01-30T11:45:32;8.02;;;5.70;;
68176;SDS011;56478;50.982;7.032;2024-01-30T11:47:58;8.15;;;5.97;;
68176;SDS011;56478;50.982;7.032;2024-01-30T11:50:26;7.72;;;5.72;;
68176;SDS011;56478;50.982;7.032;2024-01-30T11:52:52;8.98;;;6.07;;
68176;SDS011;56478;50.982;7.032;2024-01-30T11:55:19;7.47;;;5.70;;
68176;SDS011;56478;50.982;7.032;2024-01-30T11:57:45;8.45;;;5.82;;
68176;SDS011;56478;50.982;7.032;2024-01-30T12:00:17;9.45;;;5.78;;
68176;SDS011;56478;50.982;7.032;2024-01-30T12:02:43;8.82;;;6.10;;
68176;SDS011;56478;50.982;7.032;2024-01-30T12:05:14;8.65;;;6.00;;
68176;SDS011;56478;50.982;7.032;2024-01-30T12:07:39;6.25;;;5.47;;
68176;SDS011;56478;50.982;7.032;2024-01-30T12:10:05;8.00;;;5.85;;
68176;SDS011;56478;50.982;7.032;2024-01-30T12:12:30;9.77;;;6.15;;
68176;SDS011;56478;50.982;7.032;2024-01-30T12:14:56;8.75;;;6.00;;
68176;SDS011;56478;50.982;7.032;2024-01-30T12:17:29;8.02;;;6.10;;
68176;SDS011;56478;50.982;7.032;2024-01-30T12:22:36;8.80;;;5.80;;
68176;SDS011;56478;50.982;7.032;2024-01-30T12:25:13;7.60;;;5.82;;
68176;SDS011;56478;50.982;7.032;2024-01-30T12:27:41;11.48;;;6.13;;
68176;SDS011;56478;50.982;7.032;2024-01-30T12:30:08;6.50;;;5.78;;
68176;SDS011;56478;50.982;7.032;2024-01-30T12:32:41;10.13;;;5.80;;
68176;SDS011;56478;50.982;7.032;2024-01-30T12:35:11;9.73;;;6.13;;
68176;SDS011;56478;50.982;7.032;2024-01-30T12:37:37;9.73;;;5.97;;
68176;SDS011;56478;50.982;7.032;2024-01-30T12:40:03;7.88;;;6.40;;
68176;SDS011;56478;50.982;7.032;2024-01-30T12:42:31;7.80;;;5.90;;
68176;SDS011;56478;50.982;7.032;2024-01-30T12:44:59;10.00;;;5.97;;
68176;SDS011;56478;50.982;7.032;2024-01-30T12:47:25;7.45;;;6.00;;
68176;SDS011;56478;50.982;7.032;2024-01-30T12:49:51;10.25;;;6.38;;
68176;SDS011;56478;50.982;7.032;2024-01-30T12:52:20;9.65;;;5.95;;
68176;SDS011;56478;50.982;7.032;2024-01-30T12:54:47;8.50;;;6.28;;
68176;SDS011;56478;50.982;7.032;2024-01-30T12:57:13;9.05;;;6.15;;
68176;SDS011;56478;50.982;7.032;2024-01-30T12:59:39;10.60;;;6.20;;
68176;SDS011;56478;50.982;7.032;2024-01-30T13:02:04;10.07;;;6.20;;
68176;SDS011;56478;50.982;7.032;2024-01-30T13:04:30;10.07;;;6.43;;
68176;SDS011;56478;50.982;7.032;2024-01-30T13:06:56;11.18;;;6.50;;
68176;SDS011;56478;50.982;7.032;2024-01-30T13:09:23;10.38;;;6.50;;
68176;SDS011;56478;50.982;7.032;2024-01-30T13:11:49;9.13;;;6.32;;
68176;SDS011;56478;50.982;7.032;2024-01-30T13:14:15;12.63;;;6.63;;
68176;SDS011;56478;50.982;7.032;2024-01-30T13:16:40;11.95;;;6.57;;
68176;SDS011;56478;50.982;7.032;2024-01-30T13:19:06;12.52;;;6.63;;
68176;SDS011;56478;50.982;7.032;2024-01-30T13:21:31;10.95;;;6.97;;
68176;SDS011;56478;50.982;7.032;2024-01-30T13:23:57;10.13;;;6.68;;
68176;SDS011;56478;50.982;7.032;2024-01-30T13:26:22;10.15;;;6.68;;
68176;SDS011;56478;50.982;7.032;2024-01-30T13:28:48;11.90;;;6.72;;
68176;SDS011;56478;50.982;7.032;2024-01-30T13:31:14;8.18;;;6.93;;
68176;SDS011;56478;50.982;7.032;2024-01-30T13:33:42;9.95;;;6.65;;
68176;SDS011;56478;50.982;7.032;2024-01-30T13:36:10;11.93;;;6.78;;
68176;SDS011;56478;50.982;7.032;2024-01-30T13:38:36;12.45;;;6.65;;
68176;SDS011;56478;50.982;7.032;2024-01-30T13:41:02;11.90;;;7.03;;
68176;SDS011;56478;50.982;7.032;2024-01-30T13:43:28;12.55;;;6.95;;
68176;SDS011;56478;50.982;7.032;2024-01-30T13:45:54;10.77;;;6.55;;
68176;SDS011;56478;50.982;7.032;2024-01-30T13:48:20;12.10;;;6.80;;
68176;SDS011;56478;50.982;7.032;2024-01-30T13:50:45;18.63;;;6.88;;
68176;SDS011;56478;50.982;7.032;2024-01-30T13:53:11;15.10;;;6.53;;
68176;SDS011;56478;50.982;7.032;2024-01-30T13:55:37;11.02;;;6.60;;
68176;SDS011;56478;50.982;7.032;2024-01-30T13:58:03;11.52;;;7.10;;
68176;SDS011;56478;50.982;7.032;2024-01-30T14:00:28;11.95;;;5.97;;
68176;SDS011;56478;50.982;7.032;2024-01-30T14:02:54;8.07;;;5.63;;
68176;SDS011;56478;50.982;7.032;2024-01-30T14:05:20;7.45;;;5.05;;
68176;SDS011;56478;50.982;7.032;2024-01-30T14:07:49;6.75;;;5.10;;
68176;SDS011;56478;50.982;7.032;2024-01-30T14:10:18;8.60;;;5.00;;
68176;SDS011;56478;50.982;7.032;2024-01-30T14:12:44;11.65;;;5.30;;
68176;SDS011;56478;50.982;7.032;2024-01-30T14:15:10;10.02;;;5.10;;
68176;SDS011;56478;50.982;7.032;2024-01-30T14:17:37;7.07;;;5.10;;
68176;SDS011;56478;50.982;7.032;2024-01-30T14:20:03;8.43;;;5.22;;
68176;SDS011;56478;50.982;7.032;2024-01-30T14:22:33;7.78;;;5.05;;
68176;SDS011;56478;50.982;7.032;2024-01-30T14:24:59;11.10;;;5.47;;
68176;SDS011;56478;50.982;7.032;2024-01-30T14:27:25;9.73;;;5.63;;
68176;SDS011;56478;50.982;7.032;2024-01-30T14:29:51;8.30;;;5.68;;
68176;SDS011;56478;50.982;7.032;2024-01-30T14:32:16;11.88;;;5.13;;
68176;SDS011;56478;50.982;7.032;2024-01-30T14:34:42;9.93;;;5.60;;
68176;SDS011;56478;50.982;7.032;2024-01-30T14:37:07;9.98;;;5.60;;
68176;SDS011;56478;50.982;7.032;2024-01-30T14:39:33;11.75;;;5.97;;
68176;SDS011;56478;50.982;7.032;2024-01-30T14:42:02;9.63;;;5.60;;
68176;SDS011;56478;50.982;7.032;2024-01-30T14:44:28;8.02;;;5.43;;
68176;SDS011;56478;50.982;7.032;2024-01-30T14:46:54;7.15;;;5.40;;
68176;SDS011;56478;50.982;7.032;2024-01-30T14:49:20;8.65;;;5.72;;
68176;SDS011;56478;50.982;7.032;2024-01-30T14:51:46;9.00;;;5.18;;
68176;SDS011;56478;50.982;7.032;2024-01-30T14:54:11;9.73;;;5.30;;
68176;SDS011;56478;50.982;7.032;2024-01-30T14:56:37;8.20;;;5.10;;
68176;SDS011;56478;50.982;7.032;2024-01-30T14:59:02;7.15;;;5.50;;
68176;SDS011;56478;50.982;7.032;2024-01-30T15:01:28;7.07;;;5.43;;
68176;SDS011;56478;50.982;7.032;2024-01-30T15:03:54;8.90;;;5.25;;
68176;SDS011;56478;50.982;7.032;2024-01-30T15:06:20;10.30;;;5.70;;
68176;SDS011;56478;50.982;7.032;2024-01-30T15:08:49;9.00;;;5.05;;
68176;SDS011;56478;50.982;7.032;2024-01-30T15:11:15;8.15;;;5.53;;
68176;SDS011;56478;50.982;7.032;2024-01-30T15:13:40;7.70;;;5.57;;
68176;SDS011;56478;50.982;7.032;2024-01-30T15:16:06;10.40;;;5.78;;